Time;durP1;ratioP1;P1;durP2;ratioP2;P2;SDS_P1;SDS_P2;PMS_P1;PMS_P2;Temp;Humidity;BMP_temperature;BMP_pressure;BME280_temperature;BME280_humidity;BME280_pressure;Samples;Min_cycle;Max_cycle;Signal;HPM_P1;HPM_P2
2021/03/15 00:01:09;;;;;;;9.32;3.10;;;26.40;20.10;;;;;;5025395;28;20098;-65
2021/03/15 00:03:37;;;;;;;13.02;3.55;;;26.50;19.70;;;;;;5041338;28;20078;-65
2021/03/15 00:06:05;;;;;;;13.40;3.35;;;26.40;20.00;;;;;;5028246;28;20090;-63
2021/03/15 00:08:34;;;;;;;8.35;3.10;;;26.30;19.80;;;;;;5026768;28;20078;-61
2021/03/15 00:11:01;;;;;;;14.18;3.50;;;26.20;20.20;;;;;;5027138;28;20078;-64
2021/03/15 00:13:28;;;;;;;9.10;3.00;;;26.30;20.60;;;;;;5025242;28;20085;-66
2021/03/15 00:15:57;;;;;;;11.48;3.45;;;26.30;20.30;;;;;;5025465;28;20434;-65
2021/03/15 00:18:25;;;;;;;11.10;3.22;;;26.40;20.50;;;;;;5024106;28;20082;-66
2021/03/15 00:20:53;;;;;;;9.32;3.25;;;26.40;20.10;;;;;;5024913;28;20070;-64
2021/03/15 00:23:20;;;;;;;10.25;3.25;;;26.40;20.80;;;;;;5024669;28;20069;-65
2021/03/15 00:25:47;;;;;;;11.52;3.35;;;26.40;20.90;;;;;;5026289;28;20101;-63
2021/03/15 00:28:14;;;;;;;13.10;3.20;;;26.30;20.30;;;;;;5027207;28;20127;-65
2021/03/15 00:30:41;;;;;;;13.65;3.50;;;26.20;20.70;;;;;;5045726;28;21561;-62
2021/03/15 00:33:07;;;;;;;14.63;3.47;;;26.10;20.30;;;;;;5043997;28;20172;-65
2021/03/15 00:35:34;;;;;;;13.05;3.00;;;26.10;20.50;;;;;;5028561;28;20078;-63
2021/03/15 00:38:04;;;;;;;14.20;3.28;;;26.00;20.90;;;;;;5025067;28;20078;-64
2021/03/15 00:40:30;;;;;;;14.18;3.65;;;25.90;21.10;;;;;;5024483;28;20078;-64
2021/03/15 00:42:57;;;;;;;14.20;3.00;;;26.00;21.20;;;;;;5023326;28;20531;-64
2021/03/15 00:45:25;;;;;;;10.05;3.25;;;25.80;21.00;;;;;;5036668;28;20100;-63
2021/03/15 00:47:52;;;;;;;10.57;3.08;;;25.70;21.20;;;;;;5022087;28;20503;-64
2021/03/15 00:50:30;;;;;;;15.57;3.20;;;25.60;21.20;;;;;;5022509;28;20106;-65
2021/03/15 00:52:57;;;;;;;21.85;3.47;;;25.60;21.40;;;;;;5027888;28;20116;-67
2021/03/15 00:55:27;;;;;;;12.55;3.50;;;25.50;21.20;;;;;;5020881;28;20094;-67
2021/03/15 00:57:54;;;;;;;12.70;3.80;;;25.50;21.40;;;;;;5019669;28;20073;-67
2021/03/15 01:00:25;;;;;;;13.88;4.18;;;25.40;21.90;;;;;;5021438;28;20542;-67
2021/03/15 01:02:53;;;;;;;14.65;4.07;;;25.30;22.30;;;;;;5033507;28;20489;-67
2021/03/15 01:05:32;;;;;;;10.52;3.67;;;25.20;22.40;;;;;;5019022;28;20129;-65
2021/03/15 01:07:58;;;;;;;14.27;4.13;;;25.10;22.40;;;;;;5024503;28;20438;-66
2021/03/15 01:10:28;;;;;;;18.65;4.63;;;25.10;22.50;;;;;;5022350;28;20082;-61
2021/03/15 01:12:54;;;;;;;17.65;4.20;;;25.00;22.60;;;;;;5019636;28;20124;-67
2021/03/15 01:15:22;;;;;;;14.73;5.35;;;24.90;22.80;;;;;;5019674;28;20082;-65
2021/03/15 01:17:49;;;;;;;19.58;4.32;;;24.90;23.10;;;;;;5021444;28;20450;-64
2021/03/15 01:20:15;;;;;;;15.23;3.92;;;24.80;22.80;;;;;;5023148;28;20093;-64
2021/03/15 01:22:42;;;;;;;14.82;3.22;;;24.70;23.00;;;;;;5026514;28;20088;-65
2021/03/15 01:25:09;;;;;;;18.15;3.88;;;24.70;23.00;;;;;;5024195;28;20096;-66
2021/03/15 01:27:36;;;;;;;18.23;3.95;;;24.70;23.30;;;;;;5021242;28;20073;-65
2021/03/15 01:30:11;;;;;;;22.17;4.88;;;24.70;23.20;;;;;;5040386;28;20080;-61
2021/03/15 01:32:38;;;;;;;17.63;4.80;;;24.60;23.40;;;;;;5022068;28;20098;-65
2021/03/15 01:35:06;;;;;;;18.08;3.88;;;24.40;23.40;;;;;;5022120;28;20082;-62
2021/03/15 01:37:33;;;;;;;17.58;3.50;;;24.20;23.50;;;;;;5002913;28;20070;-66
2021/03/15 01:40:00;;;;;;;21.55;4.30;;;24.20;23.70;;;;;;5018500;28;20598;-63
2021/03/15 01:42:27;;;;;;;14.57;4.07;;;24.00;23.70;;;;;;5022066;28;20074;-66
2021/03/15 01:44:54;;;;;;;9.98;3.40;;;23.80;23.70;;;;;;5019440;28;20105;-64
2021/03/15 01:47:23;;;;;;;11.45;2.88;;;23.70;24.40;;;;;;5021751;28;20475;-63
2021/03/15 01:49:49;;;;;;;12.02;3.03;;;23.60;24.80;;;;;;5017187;28;20551;-65
2021/03/15 01:52:16;;;;;;;8.48;2.90;;;23.50;25.30;;;;;;5025694;28;20066;-65
2021/03/15 01:54:43;;;;;;;14.25;3.13;;;23.40;25.50;;;;;;5024215;28;20491;-65
2021/03/15 01:57:09;;;;;;;8.18;2.72;;;23.20;25.90;;;;;;5025388;28;20074;-66
2021/03/15 01:59:36;;;;;;;13.15;3.10;;;23.10;26.30;;;;;;5024136;28;20086;-65
2021/03/15 02:02:03;;;;;;;14.10;2.42;;;22.90;26.60;;;;;;5021811;28;20173;-63
2021/03/15 02:04:30;;;;;;;10.70;2.78;;;22.80;27.00;;;;;;5021335;28;20098;-65
2021/03/15 02:06:56;;;;;;;20.77;3.40;;;22.70;27.50;;;;;;5022709;28;20078;-65
2021/03/15 02:09:23;;;;;;;22.58;3.30;;;22.60;27.80;;;;;;5025084;28;20081;-63
2021/03/15 02:11:55;;;;;;;11.30;2.90;;;22.50;28.30;;;;;;5024294;28;20136;-64
2021/03/15 02:14:44;;;;;;;12.38;2.60;;;22.40;28.70;;;;;;5038217;28;20172;-61
2021/03/15 02:17:37;;;;;;;10.10;2.67;;;22.20;29.10;;;;;;5022905;28;20117;-62
2021/03/15 02:20:33;;;;;;;8.13;2.08;;;22.10;29.50;;;;;;5023640;28;20082;-63
2021/03/15 02:23:14;;;;;;;14.25;2.80;;;22.00;29.90;;;;;;5025121;28;20110;-65
2021/03/15 02:26:10;;;;;;;13.48;3.67;;;21.80;30.30;;;;;;5021864;28;20571;-62
2021/03/15 02:28:58;;;;;;;14.30;2.45;;;21.70;30.70;;;;;;5028063;28;20069;-64
2021/03/15 02:31:51;;;;;;;13.77;2.70;;;21.60;31.20;;;;;;5027817;28;20077;-63
2021/03/15 02:34:56;;;;;;;22.35;3.53;;;21.50;31.80;;;;;;5023041;28;20098;-62
2021/03/15 02:37:35;;;;;;;15.55;2.33;;;21.30;32.40;;;;;;5025418;28;20119;-62
2021/03/15 02:40:11;;;;;;;11.80;2.10;;;21.20;33.00;;;;;;5030137;28;20440;-62
2021/03/15 02:42:42;;;;;;;9.35;2.95;;;21.20;33.40;;;;;;5028059;28;20074;-62
2021/03/15 02:45:09;;;;;;;19.40;3.65;;;21.10;33.60;;;;;;5024276;28;20124;-62
2021/03/15 02:47:40;;;;;;;13.18;3.38;;;21.00;34.00;;;;;;5024905;28;20156;-63
2021/03/15 02:50:10;;;;;;;12.70;2.65;;;20.90;34.10;;;;;;5026259;28;20070;-59
2021/03/15 02:52:45;;;;;;;18.73;2.45;;;20.90;34.40;;;;;;5027758;28;20533;-61
2021/03/15 02:55:16;;;;;;;11.93;2.00;;;20.80;34.80;;;;;;5024246;28;20081;-57
2021/03/15 02:57:46;;;;;;;14.02;5.13;;;20.70;35.50;;;;;;5027088;28;20098;-61
2021/03/15 03:00:14;;;;;;;17.02;5.00;;;20.60;35.80;;;;;;5026140;28;20093;-62
2021/03/15 03:02:43;;;;;;;17.08;5.50;;;20.50;36.30;;;;;;5027383;28;20090;-63
2021/03/15 03:05:12;;;;;;;23.02;8.18;;;20.50;36.80;;;;;;5024051;28;20096;-61
2021/03/15 03:07:42;;;;;;;22.55;5.68;;;20.40;37.00;;;;;;5020540;28;20093;-63
2021/03/15 03:10:10;;;;;;;14.93;4.53;;;20.30;37.20;;;;;;5024317;28;20090;-65
2021/03/15 03:12:39;;;;;;;14.98;3.47;;;20.30;37.90;;;;;;5021485;28;20497;-61
2021/03/15 03:15:08;;;;;;;10.20;3.00;;;20.20;38.20;;;;;;5020231;28;20133;-61
2021/03/15 03:17:39;;;;;;;12.13;3.25;;;20.10;38.70;;;;;;5021182;28;20151;-64
2021/03/15 03:20:14;;;;;;;15.00;3.05;;;20.00;39.00;;;;;;5018154;28;20083;-63
2021/03/15 03:22:43;;;;;;;20.58;3.63;;;20.00;39.30;;;;;;5021487;28;20085;-65
2021/03/15 03:25:16;;;;;;;18.48;4.30;;;19.90;39.90;;;;;;5021896;28;20101;-63
2021/03/15 03:27:53;;;;;;;33.72;5.40;;;19.80;40.00;;;;;;5021802;28;20066;-64
2021/03/15 03:30:40;;;;;;;38.25;5.90;;;19.70;40.90;;;;;;5020849;28;20082;-61
2021/03/15 03:33:09;;;;;;;31.50;8.10;;;19.60;41.40;;;;;;5015113;28;20093;-64
2021/03/15 03:35:36;;;;;;;30.45;9.38;;;19.50;41.70;;;;;;5022137;28;20826;-63
2021/03/15 03:38:04;;;;;;;33.63;8.43;;;19.50;41.80;;;;;;5020977;28;20071;-64
2021/03/15 03:40:31;;;;;;;23.30;11.10;;;19.50;41.90;;;;;;5038048;28;20078;-65
2021/03/15 03:42:58;;;;;;;16.75;3.92;;;19.50;42.30;;;;;;5020047;28;20517;-64
2021/03/15 03:45:24;;;;;;;21.33;3.78;;;19.40;41.90;;;;;;5016623;28;20168;-65
2021/03/15 03:47:51;;;;;;;12.45;4.07;;;19.30;42.00;;;;;;5021567;28;20082;-65
2021/03/15 03:50:21;;;;;;;17.65;4.63;;;19.20;42.70;;;;;;5018911;28;20423;-64
2021/03/15 03:53:09;;;;;;;19.15;6.07;;;19.10;43.00;;;;;;5025347;28;20575;-66
2021/03/15 03:55:41;;;;;;;;;;;19.10;43.10;;;;;;5020493;28;20414;-63
2021/03/15 03:58:12;;;;;;;9.52;4.25;;;19.00;43.20;;;;;;5020129;28;20424;-65
2021/03/15 04:00:39;;;;;;;7.60;3.30;;;19.00;43.30;;;;;;5022201;28;20123;-64
2021/03/15 04:03:18;;;;;;;21.77;5.40;;;19.00;43.40;;;;;;5022354;28;20085;-64
2021/03/15 04:05:51;;;;;;;17.67;4.57;;;18.90;43.80;;;;;;5022171;28;20480;-60
2021/03/15 04:08:35;;;;;;;17.10;5.57;;;18.90;43.60;;;;;;5020736;28;20471;-65
2021/03/15 04:11:03;;;;;;;18.65;4.53;;;18.80;43.90;;;;;;5026124;28;20080;-63
2021/03/15 04:13:31;;;;;;;16.60;5.07;;;18.80;43.50;;;;;;5024472;28;20077;-65
2021/03/15 04:15:59;;;;;;;17.50;5.30;;;18.70;43.90;;;;;;5024218;28;20120;-62
2021/03/15 04:18:29;;;;;;;16.27;4.90;;;18.70;44.10;;;;;;5022652;28;20089;-64
2021/03/15 04:20:59;;;;;;;13.32;5.82;;;18.70;44.30;;;;;;5021440;28;20082;-63
2021/03/15 04:23:33;;;;;;;26.30;11.60;;;18.60;44.10;;;;;;5028296;28;20070;-62
2021/03/15 04:26:01;;;;;;;29.85;12.32;;;18.60;43.70;;;;;;5024804;28;20500;-63
2021/03/15 04:28:31;;;;;;;38.15;14.52;;;18.50;43.60;;;;;;5025696;28;20093;-63
2021/03/15 04:30:59;;;;;;;25.65;11.45;;;18.50;43.30;;;;;;5026427;28;20132;-62
2021/03/15 04:33:27;;;;;;;25.38;8.23;;;18.50;43.90;;;;;;5024662;28;20067;-63
2021/03/15 04:35:54;;;;;;;27.67;7.25;;;18.40;42.60;;;;;;5024922;28;20083;-66
2021/03/15 04:38:24;;;;;;;22.23;6.70;;;18.40;41.90;;;;;;5039006;28;20164;-64
2021/03/15 04:40:52;;;;;;;18.15;4.93;;;18.40;41.70;;;;;;5022088;28;20565;-63
2021/03/15 04:43:20;;;;;;;22.60;5.90;;;18.40;41.40;;;;;;5026418;28;20089;-62
2021/03/15 04:45:49;;;;;;;22.67;5.65;;;18.40;41.10;;;;;;5026596;28;20196;-65
2021/03/15 04:48:27;;;;;;;24.88;5.40;;;18.40;40.60;;;;;;5023647;28;20074;-62
2021/03/15 04:50:57;;;;;;;20.80;5.38;;;18.40;40.40;;;;;;5026674;28;20074;-65
2021/03/15 04:53:25;;;;;;;14.90;3.95;;;18.50;40.50;;;;;;5020955;28;20106;-64
2021/03/15 04:55:57;;;;;;;29.85;4.65;;;18.40;40.80;;;;;;5020472;28;20066;-63
2021/03/15 04:58:25;;;;;;;20.27;4.43;;;18.50;41.30;;;;;;5019409;28;20081;-62
2021/03/15 05:00:56;;;;;;;14.35;4.30;;;18.40;41.40;;;;;;5019894;28;20534;-62
2021/03/15 05:03:25;;;;;;;14.35;4.78;;;18.40;41.40;;;;;;5023498;28;20101;-62
2021/03/15 05:05:53;;;;;;;12.02;4.60;;;18.30;41.40;;;;;;5021229;28;20495;-61
2021/03/15 05:08:28;;;;;;;14.27;4.63;;;18.30;41.70;;;;;;5023864;28;20128;-62
2021/03/15 05:10:58;;;;;;;19.08;4.50;;;18.30;41.50;;;;;;5025635;28;20514;-64
2021/03/15 05:13:25;;;;;;;15.63;4.72;;;18.30;41.40;;;;;;5026628;28;20076;-63
2021/03/15 05:15:52;;;;;;;15.68;4.50;;;18.30;41.20;;;;;;5023115;28;20104;-64
2021/03/15 05:18:21;;;;;;;15.02;4.60;;;18.30;41.50;;;;;;5017881;28;20086;-62
2021/03/15 05:20:48;;;;;;;19.10;6.50;;;18.30;41.70;;;;;;5020241;28;20073;-63
2021/03/15 05:23:15;;;;;;;21.95;7.07;;;18.30;42.40;;;;;;5020749;28;20078;-63
2021/03/15 05:25:44;;;;;;;24.38;6.15;;;18.20;42.40;;;;;;5022477;28;20129;-62
2021/03/15 05:28:12;;;;;;;22.52;6.15;;;18.20;42.40;;;;;;5021664;28;20069;-63
2021/03/15 05:30:40;;;;;;;20.40;5.80;;;18.20;42.80;;;;;;5022811;28;20184;-64
2021/03/15 05:33:12;;;;;;;20.17;6.00;;;18.10;42.90;;;;;;5021776;28;20498;-63
2021/03/15 05:35:41;;;;;;;23.20;6.55;;;18.10;42.70;;;;;;5020219;28;20074;-65
2021/03/15 05:38:09;;;;;;;22.33;6.07;;;18.10;42.90;;;;;;5022552;28;20085;-64
2021/03/15 05:40:38;;;;;;;23.35;6.20;;;18.00;42.70;;;;;;5020449;28;20073;-62
2021/03/15 05:43:27;;;;;;;18.58;6.38;;;18.00;42.70;;;;;;5038642;28;20069;-65
2021/03/15 05:46:28;;;;;;;24.90;6.18;;;18.00;43.10;;;;;;5022579;28;20137;-65
2021/03/15 05:49:31;;;;;;;27.70;6.15;;;17.90;43.10;;;;;;5023740;28;20189;-63
2021/03/15 05:52:16;;;;;;;33.08;5.88;;;17.90;43.60;;;;;;5024585;28;20128;-66
2021/03/15 05:55:07;;;;;;;19.83;5.72;;;17.90;43.70;;;;;;5024362;28;20074;-65
2021/03/15 05:58:07;;;;;;;20.58;4.88;;;17.90;43.90;;;;;;5022564;28;20161;-64
2021/03/15 06:01:02;;;;;;;23.85;5.70;;;17.80;44.50;;;;;;5023105;28;20433;-62
2021/03/15 06:03:43;;;;;;;18.00;5.53;;;17.70;45.50;;;;;;5028069;28;20611;-65
2021/03/15 06:06:17;;;;;;;19.23;5.05;;;17.70;46.40;;;;;;5041435;28;20102;-64
2021/03/15 06:08:47;;;;;;;15.02;4.43;;;17.60;47.80;;;;;;5027134;28;20133;-64
2021/03/15 06:11:20;;;;;;;20.17;4.22;;;17.50;48.80;;;;;;5028380;28;20109;-65
2021/03/15 06:13:47;;;;;;;21.45;4.47;;;17.50;49.50;;;;;;5006676;28;20157;-65
2021/03/15 06:16:16;;;;;;;16.20;3.55;;;17.50;50.10;;;;;;5029322;28;20078;-65
2021/03/15 06:18:44;;;;;;;14.50;3.63;;;17.50;50.70;;;;;;5027732;28;20078;-64
2021/03/15 06:21:12;;;;;;;15.02;3.67;;;17.40;51.50;;;;;;5040650;28;20144;-63
2021/03/15 06:23:39;;;;;;;20.90;3.40;;;17.40;52.10;;;;;;5028625;28;20082;-64
2021/03/15 06:26:08;;;;;;;12.15;2.65;;;17.30;52.90;;;;;;5026920;28;20116;-64
2021/03/15 06:28:35;;;;;;;13.65;2.92;;;17.20;53.10;;;;;;5030213;28;20076;-63
2021/03/15 06:31:03;;;;;;;12.45;3.50;;;17.20;53.50;;;;;;5027678;28;20082;-64
2021/03/15 06:33:34;;;;;;;14.57;3.80;;;17.20;53.70;;;;;;5022756;28;20106;-62
2021/03/15 06:36:07;;;;;;;14.00;3.22;;;17.20;54.00;;;;;;5024609;28;20588;-63
2021/03/15 06:38:37;;;;;;;10.13;2.90;;;17.10;54.50;;;;;;5025926;28;20077;-63
2021/03/15 06:41:08;;;;;;;9.23;3.10;;;17.00;55.00;;;;;;5027505;28;20431;-61
2021/03/15 06:43:35;;;;;;;12.88;2.92;;;17.00;55.40;;;;;;5026861;28;20081;-62
2021/03/15 06:46:03;;;;;;;14.18;3.50;;;17.00;55.20;;;;;;5030448;28;20163;-62
2021/03/15 06:48:30;;;;;;;11.02;3.47;;;16.90;55.50;;;;;;5024766;28;20074;-63
2021/03/15 06:50:57;;;;;;;17.95;3.70;;;16.90;56.20;;;;;;5023966;28;20084;-65
2021/03/15 06:53:24;;;;;;;19.75;4.05;;;16.90;57.00;;;;;;5025440;28;20078;-64
2021/03/15 06:55:54;;;;;;;19.70;3.42;;;16.80;58.30;;;;;;5029354;28;20081;-63
2021/03/15 06:58:32;;;;;;;15.30;3.83;;;16.80;59.30;;;;;;5029951;28;20074;-64
2021/03/15 07:01:26;;;;;;;11.93;3.42;;;16.70;59.90;;;;;;5026878;28;20070;-64
2021/03/15 07:04:14;;;;;;;16.05;3.28;;;16.70;61.00;;;;;;5024084;28;20124;-64
2021/03/15 07:06:41;;;;;;;;;;;16.70;61.50;;;;;;5023072;28;20098;-62
2021/03/15 07:09:17;;;;;;;15.32;2.97;;;16.60;62.80;;;;;;5025169;28;19964;-64
2021/03/15 07:11:44;;;;;;;12.00;2.80;;;16.60;63.90;;;;;;5026219;28;20092;-63
2021/03/15 07:14:26;;;;;;;12.20;3.13;;;16.50;64.90;;;;;;5024037;28;20079;-62
2021/03/15 07:17:00;;;;;;;17.70;4.07;;;16.60;65.70;;;;;;5025282;28;20085;-64
2021/03/15 07:19:27;;;;;;;13.45;3.80;;;16.50;66.70;;;;;;5026791;28;20078;-64
2021/03/15 07:21:53;;;;;;;10.35;2.90;;;16.50;67.20;;;;;;5024132;28;20070;-64
2021/03/15 07:24:20;;;;;;;12.70;2.90;;;16.50;67.80;;;;;;5021526;28;20503;-66
2021/03/15 07:26:46;;;;;;;;;;;16.50;68.60;;;;;;5023370;28;20182;-64
2021/03/15 07:29:15;;;;;;;15.65;3.63;;;16.40;68.90;;;;;;5020166;28;19964;-64
2021/03/15 07:31:47;;;;;;;17.85;3.63;;;16.40;69.80;;;;;;5037852;28;20078;-66
2021/03/15 07:34:17;;;;;;;13.75;3.42;;;16.30;71.40;;;;;;5018465;28;20098;-64
2021/03/15 07:36:59;;;;;;;17.70;4.18;;;16.40;72.20;;;;;;5022488;28;20070;-64
2021/03/15 07:39:31;;;;;;;13.40;3.47;;;16.40;72.90;;;;;;5022166;28;20097;-63
2021/03/15 07:42:01;;;;;;;18.58;3.88;;;16.40;74.50;;;;;;5023562;28;20112;-64
2021/03/15 07:44:30;;;;;;;15.82;3.95;;;16.40;75.80;;;;;;5024488;28;20070;-65
2021/03/15 07:46:59;;;;;;;13.38;3.72;;;16.20;76.60;;;;;;5021945;28;20121;-63
2021/03/15 07:49:42;;;;;;;15.55;4.03;;;16.30;77.50;;;;;;5036850;28;20152;-64
2021/03/15 07:52:10;;;;;;;16.77;4.97;;;16.20;78.30;;;;;;5022518;28;20081;-65
2021/03/15 07:54:39;;;;;;;16.52;4.75;;;16.10;79.90;;;;;;5020942;28;20062;-65
2021/03/15 07:57:22;;;;;;;16.90;4.93;;;16.10;81.10;;;;;;5022593;28;20161;-64
2021/03/15 07:59:51;;;;;;;20.95;5.35;;;16.00;82.40;;;;;;5022222;28;20083;-64
2021/03/15 08:02:23;;;;;;;18.75;5.95;;;16.00;84.00;;;;;;5022083;28;20072;-65
2021/03/15 08:04:51;;;;;;;17.90;5.30;;;16.00;85.30;;;;;;5018080;28;20090;-64
2021/03/15 08:07:20;;;;;;;23.67;6.18;;;16.00;87.00;;;;;;5020609;28;20074;-64
2021/03/15 08:09:51;;;;;;;24.00;5.50;;;16.00;86.10;;;;;;5019896;28;20125;-63
2021/03/15 08:12:18;;;;;;;20.95;6.20;;;16.00;86.40;;;;;;5034596;28;20074;-65
2021/03/15 08:14:49;;;;;;;20.10;4.90;;;16.10;86.60;;;;;;5020691;28;20110;-64
2021/03/15 08:17:21;;;;;;;15.98;4.68;;;16.00;87.20;;;;;;5018069;28;20229;-65
2021/03/15 08:19:49;;;;;;;12.88;3.72;;;16.10;87.10;;;;;;5020772;28;20547;-66
2021/03/15 08:22:27;;;;;;;18.33;5.10;;;16.10;86.70;;;;;;5020638;28;20427;-65
2021/03/15 08:24:58;;;;;;;17.05;4.00;;;16.10;86.80;;;;;;5018996;28;20089;-64
2021/03/15 08:27:28;;;;;;;15.50;4.10;;;16.20;86.90;;;;;;5019994;28;20454;-65
2021/03/15 08:30:01;;;;;;;16.25;3.97;;;16.10;87.40;;;;;;5017159;28;20074;-64
2021/03/15 08:32:30;;;;;;;13.18;3.90;;;16.00;89.30;;;;;;5020961;28;20070;-65
2021/03/15 08:34:58;;;;;;;13.90;3.75;;;16.10;88.90;;;;;;5020625;28;20825;-65
2021/03/15 08:38:00;;;;;;;14.45;3.95;;;15.90;89.70;;;;;;5035525;28;20070;-64
2021/03/15 08:40:42;;;;;;;16.10;3.65;;;16.00;90.00;;;;;;4994345;28;20082;-64
2021/03/15 08:43:18;;;;;;;17.17;4.47;;;16.00;89.80;;;;;;5017047;28;20109;-65
2021/03/15 08:46:01;;;;;;;19.65;4.47;;;15.90;90.20;;;;;;5033720;28;20628;-64
2021/03/15 08:48:36;;;;;;;17.38;4.57;;;15.80;90.30;;;;;;5016642;28;20078;-63
2021/03/15 08:51:13;;;;;;;17.60;5.53;;;15.90;90.50;;;;;;5017596;28;20119;-63
2021/03/15 08:56:14;;;;;;;;;;;16.00;90.50;;;;;;5019681;28;20607;-63
2021/03/15 08:58:51;;;;;;;21.80;5.90;;;15.90;90.70;;;;;;5017062;28;19967;-65
2021/03/15 09:01:18;;;;;;;;;;;15.80;91.00;;;;;;5018306;28;20067;-64
2021/03/15 09:03:56;;;;;;;20.73;4.65;;;15.80;91.60;;;;;;5017688;28;19989;-65
2021/03/15 09:09:12;;;;;;;12.38;4.47;;;15.80;91.30;;;;;;5016241;28;20561;-64
2021/03/15 09:11:41;;;;;;;14.48;4.82;;;15.90;91.20;;;;;;5017008;28;20081;-62
2021/03/15 09:14:17;;;;;;;17.60;4.70;;;15.90;90.60;;;;;;5032403;28;20066;-64
2021/03/15 09:16:46;;;;;;;14.43;3.90;;;15.80;90.40;;;;;;5018363;28;20108;-65
2021/03/15 09:19:40;;;;;;;17.67;4.10;;;15.80;90.60;;;;;;5017460;28;20105;-62
2021/03/15 09:22:23;;;;;;;18.88;3.50;;;15.80;91.10;;;;;;5014662;28;20077;-64
2021/03/15 09:24:50;;;;;;;11.23;2.80;;;15.80;91.00;;;;;;5018310;28;20098;-66
2021/03/15 09:27:52;;;;;;;14.63;3.67;;;15.80;91.50;;;;;;5019751;28;20153;-63
2021/03/15 09:30:26;;;;;;;17.27;3.13;;;15.70;91.50;;;;;;5010337;28;20220;-63
2021/03/15 09:32:55;;;;;;;16.50;3.47;;;15.70;91.90;;;;;;5016406;28;20124;-64
2021/03/15 09:35:49;;;;;;;17.85;4.25;;;15.60;91.90;;;;;;5036237;28;20082;-66
2021/03/15 09:38:15;;;;;;;19.83;4.03;;;15.70;91.80;;;;;;5020253;28;20136;-63
2021/03/15 09:40:49;;;;;;;;;;;15.70;91.70;;;;;;5023377;28;20070;-64
2021/03/15 09:43:27;;;;;;;14.85;3.90;;;15.70;91.80;;;;;;5021690;28;20003;-64
2021/03/15 09:45:57;;;;;;;14.95;4.28;;;15.60;91.90;;;;;;5024494;28;20200;-65
2021/03/15 09:48:25;;;;;;;15.35;4.03;;;15.50;92.10;;;;;;5021859;28;20082;-63
2021/03/15 09:50:54;;;;;;;23.17;5.32;;;15.60;92.70;;;;;;5020048;28;20553;-64
2021/03/15 09:53:22;;;;;;;14.82;3.72;;;15.60;92.30;;;;;;5021448;28;20082;-63
2021/03/15 09:55:49;;;;;;;15.77;4.22;;;15.60;92.40;;;;;;5020001;28;20200;-64
2021/03/15 09:58:17;;;;;;;19.10;4.75;;;15.60;92.20;;;;;;5019402;28;20531;-65
2021/03/15 10:00:44;;;;;;;14.60;5.85;;;15.60;92.10;;;;;;5022046;28;20073;-63
2021/03/15 10:03:31;;;;;;;16.65;6.60;;;15.60;92.30;;;;;;5036528;28;20070;-63
2021/03/15 10:05:59;;;;;;;19.10;9.07;;;15.70;92.30;;;;;;5020554;28;20090;-65
2021/03/15 10:08:26;;;;;;;23.05;9.02;;;15.60;92.00;;;;;;5023207;28;20438;-64
2021/03/15 10:10:53;;;;;;;19.75;8.57;;;15.60;91.90;;;;;;5020331;28;20085;-64
2021/03/15 10:13:19;;;;;;;;;;;15.50;92.00;;;;;;5022552;28;20115;-64
2021/03/15 10:15:46;;;;;;;25.27;8.63;;;15.60;92.10;;;;;;5024646;28;19966;-64
2021/03/15 10:18:17;;;;;;;28.23;11.93;;;15.60;91.80;;;;;;5020701;28;20486;-64
2021/03/15 10:20:44;;;;;;;28.58;14.30;;;15.60;91.90;;;;;;5021231;28;20077;-64
2021/03/15 10:23:13;;;;;;;32.20;15.02;;;15.50;92.30;;;;;;5020550;28;20149;-63
2021/03/15 10:25:52;;;;;;;36.17;17.92;;;15.50;92.90;;;;;;5033720;28;20117;-64
2021/03/15 10:28:19;;;;;;;31.33;15.90;;;15.50;93.10;;;;;;5018789;28;20076;-64
2021/03/15 10:30:46;;;;;;;27.27;15.07;;;15.50;92.80;;;;;;5020377;28;20074;-63
2021/03/15 10:33:12;;;;;;;28.15;14.45;;;15.60;93.00;;;;;;5020099;28;20071;-63
2021/03/15 10:35:39;;;;;;;;;;;15.50;92.80;;;;;;5023126;28;20089;-64
2021/03/15 10:38:07;;;;;;;23.38;9.07;;;15.40;92.80;;;;;;5019995;28;19958;-65
2021/03/15 10:40:33;;;;;;;44.20;27.25;;;15.50;93.40;;;;;;5021163;28;20109;-65
2021/03/15 10:43:00;;;;;;;53.08;33.88;;;15.50;93.40;;;;;;5019559;28;20528;-66
2021/03/15 10:45:28;;;;;;;51.15;32.65;;;15.40;93.70;;;;;;5020790;28;20114;-63
2021/03/15 10:48:05;;;;;;;43.55;25.90;;;15.50;93.90;;;;;;5024884;28;20089;-64
2021/03/15 10:50:33;;;;;;;38.38;19.13;;;15.50;93.60;;;;;;5024798;28;20101;-64
2021/03/15 10:53:23;;;;;;;26.52;14.23;;;15.40;93.60;;;;;;5026470;28;20077;-62
2021/03/15 10:55:51;;;;;;;26.40;8.90;;;15.30;94.10;;;;;;5023228;28;20165;-62
2021/03/15 10:58:21;;;;;;;17.25;6.78;;;15.30;94.30;;;;;;5037795;28;20427;-64
2021/03/15 11:00:59;;;;;;;22.48;5.90;;;15.30;94.40;;;;;;5026593;28;20541;-64
2021/03/15 11:03:31;;;;;;;22.25;6.72;;;15.30;94.50;;;;;;5023301;28;20093;-64
2021/03/15 11:06:03;;;;;;;21.38;5.65;;;15.10;94.80;;;;;;5023751;28;20108;-64
2021/03/15 11:08:30;;;;;;;24.58;5.55;;;15.10;95.80;;;;;;5021418;28;20090;-64
2021/03/15 11:11:15;;;;;;;21.50;5.00;;;15.10;95.70;;;;;;5023140;28;20456;-65
2021/03/15 11:13:47;;;;;;;20.10;4.97;;;15.10;95.80;;;;;;5025251;28;20077;-64
2021/03/15 11:16:21;;;;;;;18.85;4.95;;;15.20;96.20;;;;;;5023836;28;20125;-63
2021/03/15 11:18:48;;;;;;;21.10;5.30;;;15.10;96.10;;;;;;5023115;28;20157;-64
2021/03/15 11:21:15;;;;;;;20.77;4.95;;;15.20;96.70;;;;;;5021512;28;20483;-64
2021/03/15 11:23:46;;;;;;;18.45;5.78;;;15.20;96.50;;;;;;5024204;28;20067;-64
2021/03/15 11:26:17;;;;;;;14.68;4.78;;;15.20;96.20;;;;;;5020400;28;20185;-64
2021/03/15 11:28:56;;;;;;;21.13;5.53;;;15.20;96.10;;;;;;5021527;28;20120;-64
2021/03/15 11:31:27;;;;;;;25.83;4.78;;;15.20;96.50;;;;;;5021878;28;20077;-65
2021/03/15 11:33:55;;;;;;;21.42;5.45;;;15.20;96.40;;;;;;5022559;28;20100;-65
2021/03/15 11:36:24;;;;;;;20.45;4.93;;;15.20;96.40;;;;;;5024707;28;20074;-64
2021/03/15 11:38:59;;;;;;;23.08;5.00;;;15.20;96.30;;;;;;5021598;28;20082;-64
2021/03/15 11:41:33;;;;;;;18.55;5.18;;;15.30;96.50;;;;;;5038363;28;20070;-64
2021/03/15 11:44:03;;;;;;;22.20;5.90;;;15.30;96.00;;;;;;5020877;28;20071;-65
2021/03/15 11:46:29;;;;;;;17.42;4.60;;;15.30;95.50;;;;;;5020937;28;20117;-66
2021/03/15 11:48:55;;;;;;;;;;;15.20;96.10;;;;;;5022752;28;20081;-64
2021/03/15 11:51:22;;;;;;;18.77;5.28;;;15.20;96.20;;;;;;5021868;28;20000;-63
2021/03/15 11:53:49;;;;;;;20.48;5.15;;;15.10;96.40;;;;;;5022334;28;20089;-64
2021/03/15 11:56:17;;;;;;;;;;;15.10;96.30;;;;;;5020750;28;20071;-64
2021/03/15 11:58:44;;;;;;;21.48;6.22;;;15.10;96.20;;;;;;5025549;28;19965;-63
2021/03/15 12:01:10;;;;;;;17.40;5.72;;;15.10;95.60;;;;;;5006888;28;20077;-64
2021/03/15 12:03:37;;;;;;;19.75;6.53;;;15.20;95.90;;;;;;5020868;28;20426;-64
2021/03/15 12:06:05;;;;;;;21.27;6.57;;;15.20;95.50;;;;;;5022052;28;20117;-65
2021/03/15 12:08:31;;;;;;;20.55;5.38;;;15.20;94.90;;;;;;5024010;28;20161;-63
2021/03/15 12:10:59;;;;;;;16.23;5.60;;;15.20;94.80;;;;;;5041183;28;20085;-64
2021/03/15 12:13:26;;;;;;;19.10;5.07;;;15.20;94.40;;;;;;5021248;28;20070;-65
2021/03/15 12:15:53;;;;;;;16.42;4.95;;;15.20;93.80;;;;;;5020231;28;20075;-62
2021/03/15 12:18:20;;;;;;;17.17;5.25;;;15.20;93.30;;;;;;5022731;28;20074;-64
2021/03/15 12:20:46;;;;;;;18.13;5.00;;;15.20;92.50;;;;;;5022454;28;20076;-64
2021/03/15 12:23:12;;;;;;;;;;;15.10;91.60;;;;;;5026193;28;20463;-65
2021/03/15 12:25:40;;;;;;;20.73;5.25;;;15.20;91.30;;;;;;5036407;28;19981;-65
2021/03/15 12:28:09;;;;;;;25.58;6.13;;;15.10;91.40;;;;;;5033522;28;20093;-62
2021/03/15 12:30:37;;;;;;;18.63;5.43;;;15.10;90.80;;;;;;5022574;28;20080;-63
2021/03/15 12:33:05;;;;;;;17.73;5.60;;;15.20;90.10;;;;;;5018973;28;20070;-64
2021/03/15 12:35:32;;;;;;;20.63;5.65;;;15.10;90.10;;;;;;5019980;28;20089;-64
2021/03/15 12:37:58;;;;;;;21.38;6.35;;;15.10;89.80;;;;;;5023107;28;20063;-66
2021/03/15 12:40:24;;;;;;;;;;;15.20;89.30;;;;;;5038944;28;20129;-65
2021/03/15 12:42:51;;;;;;;18.73;5.63;;;15.10;88.50;;;;;;5025743;28;20011;-65
2021/03/15 12:45:18;;;;;;;20.00;5.55;;;15.10;88.90;;;;;;5020243;28;20101;-64
2021/03/15 12:47:45;;;;;;;20.95;5.60;;;15.10;88.60;;;;;;5020963;28;20074;-64
2021/03/15 12:50:11;;;;;;;;;;;15.10;88.70;;;;;;5036983;28;21410;-64
2021/03/15 12:52:37;;;;;;;19.15;5.10;;;15.10;88.90;;;;;;5020946;28;19958;-65
2021/03/15 12:55:04;;;;;;;;;;;15.10;88.80;;;;;;5021618;28;20070;-64
2021/03/15 12:57:30;;;;;;;26.25;6.72;;;15.10;88.30;;;;;;5020853;28;19965;-64
2021/03/15 12:59:58;;;;;;;11.77;5.43;;;15.00;88.70;;;;;;5019061;28;20120;-65
2021/03/15 13:02:24;;;;;;;23.95;6.72;;;15.00;89.00;;;;;;5019262;28;20148;-66
2021/03/15 13:04:50;;;;;;;;;;;15.00;88.50;;;;;;5022556;28;20072;-65
2021/03/15 13:07:17;;;;;;;32.65;7.82;;;15.00;89.10;;;;;;5024086;28;20354;-64